createdAt,value
2022-08-24T00:00:46.419Z,17.90
2022-08-24T00:01:46.480Z,17.90
2022-08-24T00:02:46.567Z,17.90
2022-08-24T00:03:46.352Z,17.88
2022-08-24T00:04:46.758Z,17.88
2022-08-24T00:05:46.318Z,17.88
2022-08-24T00:06:46.310Z,17.88
2022-08-24T00:07:46.392Z,17.87
2022-08-24T00:08:46.313Z,17.86
2022-08-24T00:09:49.560Z,17.87
2022-08-24T00:10:46.301Z,17.87
2022-08-24T00:11:46.296Z,17.88
2022-08-24T00:12:46.270Z,17.87
2022-08-24T00:13:46.249Z,17.87
2022-08-24T00:14:50.158Z,17.87
2022-08-24T00:15:46.200Z,17.87
2022-08-24T00:16:46.226Z,17.87
2022-08-24T00:17:46.203Z,17.84
2022-08-24T00:18:46.168Z,17.84
2022-08-24T00:19:46.174Z,17.86
2022-08-24T00:20:46.130Z,17.81
2022-08-24T00:21:46.181Z,17.81
2022-08-24T00:22:46.110Z,17.79
2022-08-24T00:23:46.115Z,17.80
2022-08-24T00:24:46.098Z,17.79
2022-08-24T00:25:46.078Z,17.80
2022-08-24T00:26:46.069Z,17.79
2022-08-24T00:27:46.069Z,17.77
2022-08-24T00:28:46.039Z,17.79
2022-08-24T00:29:46.067Z,17.76
2022-08-24T00:30:46.007Z,17.77
2022-08-24T00:31:46.084Z,17.77
2022-08-24T00:32:46.007Z,17.74
2022-08-24T00:33:45.979Z,17.76
2022-08-24T00:34:58.332Z,17.76
2022-08-24T00:35:46.980Z,17.74
2022-08-24T00:36:45.941Z,17.73
2022-08-24T00:37:45.970Z,17.73
2022-08-24T00:38:45.918Z,17.71
2022-08-24T00:39:46.009Z,17.69
2022-08-24T00:40:45.915Z,17.68
2022-08-24T00:41:45.894Z,17.66
2022-08-24T00:42:45.864Z,17.65
2022-08-24T00:43:45.881Z,17.65
2022-08-24T00:44:45.892Z,17.66
2022-08-24T00:45:45.875Z,17.65
2022-08-24T00:46:45.805Z,17.65
2022-08-24T00:47:57.622Z,17.65
2022-08-24T00:48:46.766Z,17.63
2022-08-24T00:49:45.805Z,17.62
2022-08-24T00:50:45.754Z,17.62
2022-08-24T00:51:45.864Z,17.60
2022-08-24T00:52:45.714Z,17.58
2022-08-24T00:53:45.779Z,17.58
2022-08-24T00:54:46.650Z,17.57
2022-08-24T00:55:45.692Z,17.57
2022-08-24T00:56:45.672Z,17.57
2022-08-24T00:57:49.631Z,17.55
2022-08-24T00:58:45.642Z,17.55
2022-08-24T00:59:45.762Z,17.55
2022-08-24T01:00:45.642Z,17.54
2022-08-24T01:01:46.462Z,17.52
2022-08-24T01:02:45.685Z,17.52
2022-08-24T01:03:45.610Z,17.54
2022-08-24T01:04:45.614Z,17.52
2022-08-24T01:05:46.036Z,17.50
2022-08-24T01:06:45.584Z,17.49
2022-08-24T01:07:45.568Z,17.52
2022-08-24T01:08:45.633Z,17.50
2022-08-24T01:09:45.528Z,17.50
2022-08-24T01:10:45.511Z,17.47
2022-08-24T01:11:45.520Z,17.49
2022-08-24T01:12:52.228Z,17.47
2022-08-24T01:13:46.458Z,17.46
2022-08-24T01:14:45.482Z,17.46
2022-08-24T01:15:45.429Z,17.45
2022-08-24T01:16:45.415Z,17.43
2022-08-24T01:17:49.227Z,17.42
2022-08-24T01:18:45.402Z,17.39
2022-08-24T01:19:45.387Z,17.39
2022-08-24T01:20:45.370Z,17.39
2022-08-24T01:21:45.451Z,17.39
2022-08-24T01:22:45.347Z,17.38
2022-08-24T01:23:45.326Z,17.36
2022-08-24T01:24:45.325Z,17.35
2022-08-24T01:25:45.312Z,17.32
2022-08-24T01:26:45.296Z,17.30
2022-08-24T01:27:45.286Z,17.31
2022-08-24T01:28:45.279Z,17.31
2022-08-24T01:29:49.121Z,17.30
2022-08-24T01:30:45.233Z,17.27
2022-08-24T01:31:45.334Z,17.28
2022-08-24T01:32:45.228Z,17.28
2022-08-24T01:33:45.187Z,17.27
2022-08-24T01:34:45.252Z,17.27
2022-08-24T01:35:45.177Z,17.25
2022-08-24T01:36:45.152Z,17.24
2022-08-24T01:37:45.167Z,17.25
2022-08-24T01:38:45.132Z,17.25
2022-08-24T01:39:45.212Z,17.21
2022-08-24T01:40:45.140Z,17.21
2022-08-24T01:41:45.139Z,17.22
2022-08-24T01:42:45.110Z,17.24
2022-08-24T01:43:45.079Z,17.21
2022-08-24T01:44:45.061Z,17.22
2022-08-24T01:45:45.032Z,17.22
2022-08-24T01:46:45.055Z,17.21
2022-08-24T01:47:45.047Z,17.21
2022-08-24T01:48:44.990Z,17.20
2022-08-24T01:49:44.980Z,17.20
2022-08-24T01:50:45.724Z,17.18
2022-08-24T01:51:44.980Z,17.18
2022-08-24T01:53:04.503Z,17.18
2022-08-24T01:53:45.951Z,17.18
2022-08-24T01:54:44.929Z,17.17
2022-08-24T01:55:44.929Z,17.17
2022-08-24T01:56:44.905Z,17.17
2022-08-24T01:57:44.901Z,17.17
2022-08-24T01:58:44.940Z,17.17
2022-08-24T01:59:44.857Z,17.17
2022-08-24T02:00:44.885Z,17.15
2022-08-24T02:01:44.892Z,17.15
2022-08-24T02:02:44.896Z,17.15
2022-08-24T02:03:44.801Z,17.15
2022-08-24T02:04:44.894Z,17.15
2022-08-24T02:05:44.778Z,17.15
2022-08-24T02:06:44.760Z,17.13
2022-08-24T02:07:44.781Z,17.13
2022-08-24T02:08:44.726Z,17.10
2022-08-24T02:09:44.739Z,17.10
2022-08-24T02:10:48.767Z,17.09
2022-08-24T02:11:45.697Z,17.09
2022-08-24T02:12:44.737Z,17.09
2022-08-24T02:13:44.696Z,17.07
2022-08-24T02:14:44.677Z,17.06
2022-08-24T02:15:44.701Z,17.07
2022-08-24T02:16:45.303Z,17.06
2022-08-24T02:17:44.625Z,17.03
2022-08-24T02:18:44.671Z,17.05
2022-08-24T02:19:44.588Z,17.05
2022-08-24T02:20:44.605Z,17.03
2022-08-24T02:21:44.574Z,17.03
2022-08-24T02:22:44.619Z,17.05
2022-08-24T02:23:44.564Z,17.03
2022-08-24T02:24:44.587Z,17.02
2022-08-24T02:25:44.513Z,17.02
2022-08-24T02:26:44.506Z,17.02
2022-08-24T02:27:44.517Z,17.00
2022-08-24T02:28:44.505Z,17.02
2022-08-24T02:29:44.587Z,17.02
2022-08-24T02:30:44.510Z,17.00
2022-08-24T02:31:44.472Z,17.00
2022-08-24T02:32:44.449Z,17.00
2022-08-24T02:33:44.483Z,16.99
2022-08-24T02:34:44.411Z,17.00
2022-08-24T02:35:44.407Z,16.99
2022-08-24T02:36:44.386Z,17.00
2022-08-24T02:37:44.382Z,16.99
2022-08-24T02:38:44.376Z,16.99
2022-08-24T02:39:44.368Z,16.99
2022-08-24T02:40:44.329Z,16.97
2022-08-24T02:41:44.468Z,16.95
2022-08-24T02:42:44.328Z,16.95
2022-08-24T02:43:44.298Z,16.94
2022-08-24T02:44:44.359Z,16.92
2022-08-24T02:45:48.204Z,16.92
2022-08-24T02:46:45.953Z,16.88
2022-08-24T02:47:44.267Z,16.90
2022-08-24T02:48:44.961Z,16.88
2022-08-24T02:49:44.197Z,16.85
2022-08-24T02:50:44.367Z,16.85
2022-08-24T02:51:45.201Z,16.81
2022-08-24T02:52:44.208Z,16.82
2022-08-24T02:53:44.176Z,16.81
2022-08-24T02:54:44.197Z,16.80
2022-08-24T02:55:44.126Z,16.76
2022-08-24T02:56:44.149Z,16.73
2022-08-24T02:57:44.115Z,16.74
2022-08-24T02:58:44.104Z,16.72
2022-08-24T02:59:44.095Z,16.70
2022-08-24T03:00:44.124Z,16.72
2022-08-24T03:01:44.887Z,16.67
2022-08-24T03:02:44.057Z,16.67
2022-08-24T03:03:44.025Z,16.67
2022-08-24T03:04:44.025Z,16.66
2022-08-24T03:05:45.135Z,16.65
2022-08-24T03:06:43.996Z,16.65
2022-08-24T03:07:44.045Z,16.65
2022-08-24T03:08:44.540Z,16.62
2022-08-24T03:09:45.029Z,16.59
2022-08-24T03:10:43.934Z,16.59
2022-08-24T03:11:45.540Z,16.59
2022-08-24T03:12:43.947Z,16.58
2022-08-24T03:13:43.918Z,16.57
2022-08-24T03:14:43.892Z,16.55
2022-08-24T03:15:43.970Z,16.54
2022-08-24T03:16:43.872Z,16.54
2022-08-24T03:17:43.880Z,16.52
2022-08-24T03:18:43.873Z,16.52
2022-08-24T03:19:43.870Z,16.52
2022-08-24T03:20:43.828Z,16.51
2022-08-24T03:21:43.800Z,16.51
2022-08-24T03:22:43.844Z,16.49
2022-08-24T03:23:43.798Z,16.48
2022-08-24T03:24:43.761Z,16.48
2022-08-24T03:25:43.799Z,16.45
2022-08-24T03:26:44.456Z,16.47
2022-08-24T03:27:43.789Z,16.44
2022-08-24T03:28:44.613Z,16.44
2022-08-24T03:29:43.808Z,16.44
2022-08-24T03:30:46.720Z,16.40
2022-08-24T03:31:43.678Z,16.40
2022-08-24T03:32:43.729Z,16.39
2022-08-24T03:33:43.657Z,16.37
2022-08-24T03:34:43.637Z,16.36
2022-08-24T03:35:43.627Z,16.34
2022-08-24T03:36:43.646Z,16.34
2022-08-24T03:37:43.670Z,16.33
2022-08-24T03:38:43.576Z,16.32
2022-08-24T03:39:43.727Z,16.32
2022-08-24T03:40:43.613Z,16.30
2022-08-24T03:41:43.633Z,16.30
2022-08-24T03:42:43.573Z,16.27
2022-08-24T03:43:43.589Z,16.27
2022-08-24T03:44:43.527Z,16.26
2022-08-24T03:45:43.655Z,16.26
2022-08-24T03:46:43.484Z,16.25
2022-08-24T03:47:43.660Z,16.25
2022-08-24T03:48:43.524Z,16.25
2022-08-24T03:49:43.504Z,16.25
2022-08-24T03:50:43.507Z,16.22
2022-08-24T03:51:43.425Z,16.22
2022-08-24T03:52:43.455Z,16.22
2022-08-24T03:53:43.550Z,16.22
2022-08-24T03:54:43.452Z,16.22
2022-08-24T03:55:43.437Z,16.22
2022-08-24T03:56:43.363Z,16.18
2022-08-24T03:57:43.430Z,16.21
2022-08-24T03:58:43.363Z,16.21
2022-08-24T03:59:46.162Z,16.18
2022-08-24T04:00:43.411Z,16.16
2022-08-24T04:01:43.357Z,16.16
2022-08-24T04:02:43.367Z,16.16
2022-08-24T04:03:47.142Z,16.16
2022-08-24T04:04:43.269Z,16.14
2022-08-24T04:05:43.268Z,16.14
2022-08-24T04:06:43.247Z,16.13
2022-08-24T04:07:43.271Z,16.13
2022-08-24T04:08:43.270Z,16.11
2022-08-24T04:09:43.208Z,16.11
2022-08-24T04:10:43.229Z,16.11
2022-08-24T04:11:43.189Z,16.11
2022-08-24T04:12:43.200Z,16.10
2022-08-24T04:13:43.160Z,16.08
2022-08-24T04:14:43.130Z,16.07
2022-08-24T04:15:43.211Z,16.07
2022-08-24T04:16:43.191Z,16.06
2022-08-24T04:17:43.139Z,16.04
2022-08-24T04:18:43.117Z,16.06
2022-08-24T04:19:43.133Z,16.04
2022-08-24T04:20:43.069Z,16.04
2022-08-24T04:21:43.070Z,16.04
2022-08-24T04:22:43.039Z,16.02
2022-08-24T04:23:46.908Z,16.02
2022-08-24T04:24:43.036Z,16.02
2022-08-24T04:25:43.007Z,16.00
2022-08-24T04:26:45.808Z,16.00
2022-08-24T04:27:43.006Z,15.99
2022-08-24T04:28:42.957Z,15.99
2022-08-24T04:29:42.961Z,15.99
2022-08-24T04:30:43.067Z,15.98
2022-08-24T04:31:43.089Z,15.98
2022-08-24T04:32:42.914Z,15.96
2022-08-24T04:33:42.896Z,15.95
2022-08-24T04:34:42.891Z,15.93
2022-08-24T04:35:42.899Z,15.93
2022-08-24T04:36:42.864Z,15.93
2022-08-24T04:37:42.877Z,15.91
2022-08-24T04:38:42.866Z,15.91
2022-08-24T04:39:42.907Z,15.92
2022-08-24T04:40:42.846Z,15.91
2022-08-24T04:41:42.894Z,15.95
2022-08-24T04:42:42.783Z,15.93
2022-08-24T04:43:42.783Z,15.92
2022-08-24T04:44:42.782Z,15.93
2022-08-24T04:45:42.801Z,15.95
2022-08-24T04:46:42.752Z,15.95
2022-08-24T04:47:42.743Z,15.93
2022-08-24T04:48:42.722Z,15.95
2022-08-24T04:49:42.730Z,15.93
2022-08-24T04:50:42.753Z,15.95
2022-08-24T04:51:42.683Z,15.93
2022-08-24T04:52:42.682Z,15.95
2022-08-24T04:53:42.663Z,15.95
2022-08-24T04:54:42.650Z,15.95
2022-08-24T04:55:42.631Z,15.95
2022-08-24T04:56:46.371Z,15.95
2022-08-24T04:57:42.600Z,15.96
2022-08-24T04:58:42.639Z,15.96
2022-08-24T04:59:42.581Z,15.98
2022-08-24T05:00:42.677Z,15.98
2022-08-24T05:01:42.599Z,15.99
2022-08-24T05:02:45.054Z,15.98
2022-08-24T05:03:42.534Z,16.00
2022-08-24T05:04:42.621Z,16.00
2022-08-24T05:05:42.493Z,16.04
2022-08-24T05:06:42.509Z,16.04
2022-08-24T05:07:42.468Z,16.06
2022-08-24T05:08:42.511Z,16.07
2022-08-24T05:09:42.487Z,16.08
2022-08-24T05:10:42.506Z,16.08
2022-08-24T05:11:42.418Z,16.10
2022-08-24T05:12:43.480Z,16.11
2022-08-24T05:13:46.280Z,16.13
2022-08-24T05:14:42.385Z,16.14
2022-08-24T05:15:42.366Z,16.16
2022-08-24T05:16:45.761Z,16.17
2022-08-24T05:17:46.748Z,16.18
2022-08-24T05:18:43.376Z,16.18
2022-08-24T05:19:42.313Z,16.21
2022-08-24T05:20:42.335Z,16.21
2022-08-24T05:21:42.294Z,16.25
2022-08-24T05:22:42.294Z,16.25
2022-08-24T05:23:43.432Z,16.27
2022-08-24T05:24:42.274Z,16.27
2022-08-24T05:25:42.246Z,16.29
2022-08-24T05:26:46.316Z,16.30
2022-08-24T05:27:42.226Z,16.32
2022-08-24T05:28:42.224Z,16.32
2022-08-24T05:29:42.213Z,16.34
2022-08-24T05:30:42.982Z,16.36
2022-08-24T05:31:42.252Z,16.37
2022-08-24T05:32:42.162Z,16.37
2022-08-24T05:33:42.172Z,16.40
2022-08-24T05:34:42.167Z,16.42
2022-08-24T05:35:43.768Z,16.45
2022-08-24T05:36:42.130Z,16.45
2022-08-24T05:37:42.102Z,16.48
2022-08-24T05:38:42.100Z,16.49
2022-08-24T05:39:42.191Z,16.52
2022-08-24T05:40:42.090Z,16.55
2022-08-24T05:41:44.373Z,16.57
2022-08-24T05:42:46.060Z,16.58
2022-08-24T05:43:42.058Z,16.62
2022-08-24T05:44:42.028Z,16.63
2022-08-24T05:45:42.021Z,16.67
2022-08-24T05:46:42.054Z,16.69
2022-08-24T05:47:41.997Z,16.74
2022-08-24T05:48:41.987Z,16.76
2022-08-24T05:49:41.968Z,16.77
2022-08-24T05:50:42.001Z,16.84
2022-08-24T05:51:41.966Z,16.85
2022-08-24T05:52:41.907Z,16.90
2022-08-24T05:53:41.907Z,16.91
2022-08-24T05:54:41.897Z,16.92
2022-08-24T05:55:41.925Z,16.97
2022-08-24T05:56:41.873Z,16.99
2022-08-24T05:57:41.853Z,17.03
2022-08-24T05:58:41.871Z,17.06
2022-08-24T05:59:41.880Z,17.07
2022-08-24T06:00:41.835Z,17.12
2022-08-24T06:01:45.140Z,17.17
2022-08-24T06:02:41.982Z,17.18
2022-08-24T06:03:41.765Z,17.22
2022-08-24T06:04:41.764Z,17.24
2022-08-24T06:05:41.777Z,17.27
2022-08-24T06:06:41.745Z,17.31
2022-08-24T06:07:41.760Z,17.32
2022-08-24T06:08:41.996Z,17.38
2022-08-24T06:09:41.717Z,17.39
2022-08-24T06:10:41.713Z,17.42
2022-08-24T06:11:41.674Z,17.45
2022-08-24T06:12:41.699Z,17.47
2022-08-24T06:13:41.721Z,17.50
2022-08-24T06:14:41.640Z,17.54
2022-08-24T06:15:41.613Z,17.55
2022-08-24T06:16:41.637Z,17.60
2022-08-24T06:17:41.678Z,17.63
2022-08-24T06:18:41.575Z,17.66
2022-08-24T06:19:41.574Z,17.66
2022-08-24T06:20:41.576Z,17.71
2022-08-24T06:21:41.571Z,17.76
2022-08-24T06:22:41.533Z,17.76
2022-08-24T06:23:41.519Z,17.79
2022-08-24T06:24:41.521Z,17.81
2022-08-24T06:25:41.481Z,17.84
2022-08-24T06:26:41.473Z,17.86
2022-08-24T06:27:41.499Z,17.88
2022-08-24T06:28:41.446Z,17.92
2022-08-24T06:29:41.448Z,17.94
2022-08-24T06:30:41.449Z,17.96
2022-08-24T06:31:42.011Z,17.99
2022-08-24T06:32:41.471Z,18.02
2022-08-24T06:33:41.372Z,18.03
2022-08-24T06:34:41.370Z,18.06
2022-08-24T06:35:46.630Z,18.08
2022-08-24T06:36:42.408Z,18.11
2022-08-24T06:37:41.328Z,18.14
2022-08-24T06:38:41.328Z,18.17
2022-08-24T06:39:41.298Z,18.20
2022-08-24T06:40:41.316Z,18.23
2022-08-24T06:41:41.297Z,18.29
2022-08-24T06:42:41.310Z,18.32
2022-08-24T06:43:41.246Z,18.38
2022-08-24T06:44:41.257Z,18.42
2022-08-24T06:45:41.266Z,18.49
2022-08-24T06:46:41.295Z,18.51
2022-08-24T06:47:41.188Z,18.56
2022-08-24T06:48:41.202Z,18.59
2022-08-24T06:49:41.174Z,18.63
2022-08-24T06:50:41.159Z,18.65
2022-08-24T06:51:41.142Z,18.69
2022-08-24T06:52:41.187Z,18.71
2022-08-24T06:53:41.127Z,18.72
2022-08-24T06:54:41.165Z,18.74
2022-08-24T06:55:41.105Z,18.76
2022-08-24T06:56:41.124Z,18.76
2022-08-24T06:57:41.084Z,18.81
2022-08-24T06:58:41.074Z,18.82
2022-08-24T06:59:41.068Z,18.82
2022-08-24T07:00:41.046Z,18.87
2022-08-24T07:01:41.043Z,18.89
2022-08-24T07:02:41.052Z,18.90
2022-08-24T07:03:41.016Z,18.93
2022-08-24T07:04:41.014Z,18.94
2022-08-24T07:05:40.976Z,18.97
2022-08-24T07:06:40.966Z,19.00
2022-08-24T07:07:40.971Z,19.05
2022-08-24T07:08:40.942Z,19.07
2022-08-24T07:09:40.962Z,19.10
2022-08-24T07:10:40.901Z,19.15
2022-08-24T07:11:40.923Z,19.16
2022-08-24T07:12:40.890Z,19.19
2022-08-24T07:13:40.881Z,19.23
2022-08-24T07:14:40.913Z,19.27
2022-08-24T07:15:40.882Z,19.30
2022-08-24T07:16:40.882Z,19.35
2022-08-24T07:17:40.812Z,19.42
2022-08-24T07:18:41.230Z,19.46
2022-08-24T07:19:40.830Z,19.47
2022-08-24T07:20:40.800Z,19.53
2022-08-24T07:21:40.789Z,19.56
2022-08-24T07:22:40.870Z,19.61
2022-08-24T07:23:42.494Z,19.65
2022-08-24T07:24:40.883Z,19.68
2022-08-24T07:25:43.731Z,19.71
2022-08-24T07:26:41.718Z,19.75
2022-08-24T07:27:40.697Z,19.79
2022-08-24T07:28:40.896Z,19.85
2022-08-24T07:29:50.723Z,19.87
2022-08-24T07:30:41.647Z,19.90
2022-08-24T07:31:40.728Z,19.95
2022-08-24T07:32:40.627Z,20.01
2022-08-24T07:33:40.658Z,20.05
2022-08-24T07:34:40.618Z,20.10
2022-08-24T07:35:40.622Z,20.11
2022-08-24T07:36:44.289Z,20.16
2022-08-24T07:37:41.656Z,20.19
2022-08-24T07:38:40.565Z,20.23
2022-08-24T07:39:40.545Z,20.27
2022-08-24T07:41:05.216Z,20.32
2022-08-24T07:42:12.279Z,20.37
2022-08-24T07:42:41.505Z,20.40
2022-08-24T07:43:43.042Z,20.42
2022-08-24T07:44:40.499Z,20.46
2022-08-24T07:45:40.462Z,20.49
2022-08-24T07:46:40.549Z,20.53
2022-08-24T07:47:46.115Z,20.54
2022-08-24T07:48:41.454Z,20.56
2022-08-24T07:49:40.412Z,20.58
2022-08-24T07:50:40.433Z,20.60
2022-08-24T07:51:40.827Z,20.61
2022-08-24T07:52:40.433Z,20.64
2022-08-24T07:53:53.038Z,20.67
2022-08-24T07:54:41.361Z,20.68
2022-08-24T07:55:45.846Z,20.72
2022-08-24T07:56:41.361Z,20.75
2022-08-24T07:57:40.371Z,20.78
2022-08-24T07:58:40.379Z,20.82
2022-08-24T07:59:40.291Z,20.85
2022-08-24T08:00:40.271Z,20.88
2022-08-24T08:01:40.417Z,20.94
2022-08-24T08:02:40.316Z,20.98
2022-08-24T08:03:40.230Z,21.01
2022-08-24T08:04:40.232Z,21.03
2022-08-24T08:05:40.217Z,21.09
2022-08-24T08:06:40.190Z,21.13
2022-08-24T08:07:40.199Z,21.16
2022-08-24T08:08:40.200Z,21.22
2022-08-24T08:09:40.226Z,21.27
2022-08-24T08:10:40.186Z,21.33
2022-08-24T08:11:40.270Z,21.37
2022-08-24T08:12:40.138Z,21.40
2022-08-24T08:14:40.122Z,21.51
2022-08-24T08:15:40.200Z,21.56
2022-08-24T08:16:40.077Z,21.62
2022-08-24T08:17:40.058Z,21.67
2022-08-24T08:18:40.086Z,21.70
2022-08-24T08:19:40.051Z,21.76
2022-08-24T08:20:40.035Z,21.82
2022-08-24T08:21:39.998Z,21.86
2022-08-24T08:22:40.244Z,21.90
2022-08-24T08:23:39.999Z,21.96
2022-08-24T08:24:40.067Z,22.00
2022-08-24T08:25:41.612Z,22.05
2022-08-24T08:26:39.952Z,22.08
2022-08-24T08:27:39.956Z,22.11
2022-08-24T08:28:40.087Z,22.14
2022-08-24T08:29:39.999Z,22.16
2022-08-24T08:30:39.952Z,22.18
2022-08-24T08:31:39.973Z,22.20
2022-08-24T08:32:39.892Z,22.22
2022-08-24T08:33:39.982Z,22.23
2022-08-24T08:34:39.870Z,22.24
2022-08-24T08:35:39.936Z,22.29
2022-08-24T08:36:39.844Z,22.33
2022-08-24T08:37:39.882Z,22.38
2022-08-24T08:38:39.827Z,22.41
2022-08-24T08:39:39.834Z,22.46
2022-08-24T08:40:39.778Z,22.49
2022-08-24T08:41:39.752Z,22.52
2022-08-24T08:42:39.752Z,22.59
2022-08-24T08:43:39.721Z,22.61
2022-08-24T08:44:39.750Z,22.63
2022-08-24T08:45:39.748Z,22.66
2022-08-24T08:46:40.937Z,22.66
2022-08-24T08:47:39.671Z,22.70
2022-08-24T08:48:39.670Z,22.73
2022-08-24T08:49:39.705Z,22.78
2022-08-24T08:50:39.680Z,22.81
2022-08-24T08:51:39.660Z,22.84
2022-08-24T08:52:39.621Z,22.88
2022-08-24T08:53:39.619Z,22.86
2022-08-24T08:54:39.601Z,22.91
2022-08-24T08:55:39.595Z,22.97
2022-08-24T08:56:39.569Z,22.99
2022-08-24T08:57:39.600Z,23.01
2022-08-24T08:58:39.540Z,23.06
2022-08-24T08:59:39.577Z,23.10
2022-08-24T09:00:39.584Z,23.14
2022-08-24T09:01:44.177Z,23.18
2022-08-24T09:02:40.493Z,23.21
2022-08-24T09:03:39.547Z,23.25
2022-08-24T09:04:39.522Z,23.26
2022-08-24T09:05:39.493Z,23.29
2022-08-24T09:06:39.437Z,23.34
2022-08-24T09:07:39.427Z,23.38
2022-08-24T09:08:39.462Z,23.42
2022-08-24T09:09:39.414Z,23.47
2022-08-24T09:10:43.243Z,23.53
2022-08-24T09:11:39.366Z,23.56
2022-08-24T09:12:39.375Z,23.60
2022-08-24T09:13:39.398Z,23.62
2022-08-24T09:14:39.365Z,23.63
2022-08-24T09:15:39.315Z,23.70
2022-08-24T09:16:39.581Z,23.72
2022-08-24T09:17:39.304Z,23.77
2022-08-24T09:18:39.334Z,23.81
2022-08-24T09:19:39.426Z,23.84
2022-08-24T09:20:39.304Z,23.90
2022-08-24T09:21:39.321Z,23.96
2022-08-24T09:22:39.251Z,23.99
2022-08-24T09:23:39.235Z,24.00
2022-08-24T09:24:39.267Z,24.08
2022-08-24T09:25:39.223Z,24.17
2022-08-24T09:26:39.183Z,24.24
2022-08-24T09:27:39.249Z,24.30
2022-08-24T09:28:39.204Z,24.34
2022-08-24T09:29:41.400Z,24.37
2022-08-24T09:30:39.187Z,24.44
2022-08-24T09:31:40.173Z,24.45
2022-08-24T09:32:39.276Z,24.51
2022-08-24T09:33:39.127Z,24.54
2022-08-24T09:34:39.120Z,24.59
2022-08-24T09:35:39.137Z,24.64
2022-08-24T09:36:39.058Z,24.69
2022-08-24T09:37:43.370Z,24.71
2022-08-24T09:38:39.064Z,24.75
2022-08-24T09:39:39.071Z,24.78
2022-08-24T09:40:39.047Z,24.83
2022-08-24T09:41:39.002Z,24.86
2022-08-24T09:42:39.022Z,24.86
2022-08-24T09:43:38.990Z,24.87
2022-08-24T09:44:38.990Z,24.89
2022-08-24T09:45:39.058Z,24.94
2022-08-24T09:46:38.960Z,24.96
2022-08-24T09:47:38.931Z,24.97
2022-08-24T09:48:38.918Z,25.00
2022-08-24T09:49:38.989Z,25.01
2022-08-24T09:50:38.904Z,25.04
2022-08-24T09:51:38.887Z,25.08
2022-08-24T09:52:38.886Z,25.11
2022-08-24T09:53:38.868Z,25.15
2022-08-24T09:54:39.536Z,25.23
2022-08-24T09:55:38.857Z,25.27
2022-08-24T09:56:38.825Z,25.34
2022-08-24T09:58:39.820Z,25.44
2022-08-24T09:59:38.978Z,25.47
2022-08-24T10:00:38.786Z,25.51
2022-08-24T10:01:38.841Z,25.56
2022-08-24T10:02:38.832Z,25.62
2022-08-24T10:03:38.892Z,25.66
2022-08-24T10:04:38.838Z,25.70
2022-08-24T10:05:38.792Z,25.75
2022-08-24T10:06:38.789Z,25.76
2022-08-24T10:07:39.392Z,25.81
2022-08-24T10:08:38.665Z,25.81
2022-08-24T10:09:38.674Z,25.84
2022-08-24T10:10:38.800Z,25.86
2022-08-24T10:11:38.671Z,25.91
2022-08-24T10:12:38.613Z,25.96
2022-08-24T10:13:38.671Z,26.00
2022-08-24T10:14:38.683Z,26.04
2022-08-24T10:15:38.572Z,26.12
2022-08-24T10:16:38.684Z,26.16
2022-08-24T10:17:38.582Z,26.20
2022-08-24T10:18:38.547Z,26.24
2022-08-24T10:19:38.558Z,26.27
2022-08-24T10:20:38.531Z,26.34
2022-08-24T10:21:38.531Z,26.37
2022-08-24T10:22:38.475Z,26.38
2022-08-24T10:23:38.496Z,26.42
2022-08-24T10:24:38.460Z,26.44
2022-08-24T10:25:38.450Z,26.45
2022-08-24T10:26:38.538Z,26.47
2022-08-24T10:27:38.430Z,26.47
2022-08-24T10:28:38.407Z,26.47
2022-08-24T10:29:38.442Z,26.45
2022-08-24T10:30:38.390Z,26.45
2022-08-24T10:31:38.411Z,26.44
2022-08-24T10:32:38.418Z,26.45
2022-08-24T10:33:38.350Z,26.44
2022-08-24T10:34:38.446Z,26.45
2022-08-24T10:35:38.317Z,26.47
2022-08-24T10:36:38.321Z,26.49
2022-08-24T10:37:42.212Z,26.49
2022-08-24T10:38:38.469Z,26.49
2022-08-24T10:39:39.888Z,26.50
2022-08-24T10:40:38.667Z,26.52
2022-08-24T10:41:38.734Z,26.53
2022-08-24T10:42:38.391Z,26.54
2022-08-24T10:43:41.987Z,26.56
2022-08-24T10:44:38.268Z,26.57
2022-08-24T10:45:38.532Z,26.56
2022-08-24T10:46:38.179Z,26.57
2022-08-24T10:47:38.327Z,26.60
2022-08-24T10:48:38.242Z,26.64
2022-08-24T10:49:38.215Z,26.68
2022-08-24T10:50:38.166Z,26.71
2022-08-24T10:51:38.193Z,26.75
2022-08-24T10:52:38.166Z,26.76
2022-08-24T10:53:38.109Z,26.81
2022-08-24T10:54:38.136Z,26.82
2022-08-24T10:55:38.086Z,26.86
2022-08-24T10:56:38.103Z,26.87
2022-08-24T10:57:38.056Z,26.90
2022-08-24T10:58:38.046Z,26.91
2022-08-24T10:59:38.029Z,26.97
2022-08-24T11:00:38.023Z,27.00
2022-08-24T11:01:38.167Z,27.06
2022-08-24T11:02:38.206Z,27.11
2022-08-24T11:03:38.355Z,27.15
2022-08-24T11:04:37.954Z,27.19
2022-08-24T11:05:37.971Z,27.24
2022-08-24T11:06:37.975Z,27.28
2022-08-24T11:07:37.914Z,27.33
2022-08-24T11:08:37.923Z,27.38
2022-08-24T11:09:38.221Z,27.41
2022-08-24T11:10:37.894Z,27.48
2022-08-24T11:11:40.587Z,27.51
2022-08-24T11:12:37.878Z,27.52
2022-08-24T11:13:37.862Z,27.59
2022-08-24T11:14:37.863Z,27.64
2022-08-24T11:15:37.873Z,27.66
2022-08-24T11:16:37.854Z,27.72
2022-08-24T11:17:37.821Z,27.75
2022-08-24T11:18:37.772Z,27.76
2022-08-24T11:19:37.884Z,27.83
2022-08-24T11:20:37.751Z,27.90
2022-08-24T11:21:37.761Z,27.94
2022-08-24T11:22:37.742Z,28.02
2022-08-24T11:23:37.710Z,28.08
2022-08-24T11:24:37.728Z,28.16
2022-08-24T11:25:37.800Z,28.20
2022-08-24T11:26:37.700Z,28.24
2022-08-24T11:27:37.734Z,28.27
2022-08-24T11:28:37.653Z,28.31
2022-08-24T11:29:37.670Z,28.33
2022-08-24T11:30:37.622Z,28.38
2022-08-24T11:31:37.639Z,28.41
2022-08-24T11:32:37.605Z,28.43
2022-08-24T11:33:37.594Z,28.43
2022-08-24T11:34:37.646Z,28.46
2022-08-24T11:35:37.574Z,28.46
2022-08-24T11:36:37.554Z,28.46
2022-08-24T11:37:37.610Z,28.48
2022-08-24T11:38:37.531Z,28.51
2022-08-24T11:39:38.565Z,28.54
2022-08-24T11:40:37.511Z,28.55
2022-08-24T11:41:37.504Z,28.58
2022-08-24T11:42:37.488Z,28.61
2022-08-24T11:43:37.528Z,28.67
2022-08-24T11:44:37.535Z,28.70
2022-08-24T11:45:37.492Z,28.75
2022-08-24T11:46:37.504Z,28.79
2022-08-24T11:47:37.429Z,28.79
2022-08-24T11:48:37.485Z,28.82
2022-08-24T11:49:37.419Z,28.85
2022-08-24T11:50:37.423Z,28.88
2022-08-24T11:51:37.370Z,28.91
2022-08-24T11:52:37.370Z,28.94
2022-08-24T11:54:37.346Z,28.98
2022-08-24T11:55:47.395Z,29.01
2022-08-24T11:56:38.364Z,29.05
2022-08-24T11:57:37.348Z,29.05
2022-08-24T11:58:38.348Z,29.10
2022-08-24T11:59:37.300Z,29.10
2022-08-24T12:00:37.257Z,29.13
2022-08-24T12:01:42.880Z,29.15
2022-08-24T12:02:38.401Z,29.17
2022-08-24T12:03:37.266Z,29.21
2022-08-24T12:04:37.270Z,29.23
2022-08-24T12:05:37.295Z,29.28
2022-08-24T12:06:37.225Z,29.29
2022-08-24T12:07:37.224Z,29.32
2022-08-24T12:08:37.165Z,29.36
2022-08-24T12:09:37.215Z,29.43
2022-08-24T12:10:37.281Z,29.48
2022-08-24T12:11:37.172Z,29.54
2022-08-24T12:12:37.119Z,29.58
2022-08-24T12:13:37.133Z,29.65
2022-08-24T12:14:37.098Z,29.69
2022-08-24T12:15:37.174Z,29.72
2022-08-24T12:16:37.219Z,29.70
2022-08-24T12:17:37.053Z,29.75
2022-08-24T12:18:37.059Z,29.75
2022-08-24T12:19:37.033Z,29.73
2022-08-24T12:20:37.061Z,29.79
2022-08-24T12:21:37.054Z,29.82
2022-08-24T12:22:37.039Z,29.88
2022-08-24T12:23:37.033Z,29.92
2022-08-24T12:24:36.990Z,29.97
2022-08-24T12:25:36.996Z,30.00
2022-08-24T12:26:36.996Z,30.06
2022-08-24T12:27:36.972Z,30.10
2022-08-24T12:28:36.914Z,30.14
2022-08-24T12:29:36.902Z,30.19
2022-08-24T12:30:36.902Z,30.26
2022-08-24T12:31:36.987Z,30.25
2022-08-24T12:32:36.893Z,30.26
2022-08-24T12:33:37.669Z,30.28
2022-08-24T12:34:36.831Z,30.32
2022-08-24T12:35:36.892Z,30.37
2022-08-24T12:36:36.968Z,30.42
2022-08-24T12:37:36.832Z,30.45
2022-08-24T12:38:36.823Z,30.51
2022-08-24T12:39:36.841Z,30.60
2022-08-24T12:40:36.820Z,30.66
2022-08-24T12:41:36.779Z,30.75
2022-08-24T12:42:36.780Z,30.82
2022-08-24T12:43:36.769Z,30.88
2022-08-24T12:44:36.739Z,30.88
2022-08-24T12:45:36.783Z,30.94
2022-08-24T12:46:36.738Z,30.99
2022-08-24T12:47:36.674Z,31.07
2022-08-24T12:48:36.699Z,31.15
2022-08-24T12:49:36.660Z,31.22
2022-08-24T12:50:36.649Z,31.30
2022-08-24T12:51:36.657Z,31.34
2022-08-24T12:52:36.621Z,31.37
2022-08-24T12:53:36.669Z,31.40
2022-08-24T12:54:36.677Z,31.44
2022-08-24T12:55:36.628Z,31.50